sensor_id;sensor_type;location;lat;lon;timestamp;pressure;altitude;pressure_sealevel;temperature;humidity
75425;BME280;64007;50.632;13.700;2023-03-14T00:01:24;96223.78;;;8.98;100.00
75425;BME280;64007;50.632;13.700;2023-03-14T00:03:50;96197.91;;;8.92;100.00
75425;BME280;64007;50.632;13.700;2023-03-14T00:06:17;96198.44;;;8.96;100.00
75425;BME280;64007;50.632;13.700;2023-03-14T00:08:43;96177.84;;;8.90;100.00
75425;BME280;64007;50.632;13.700;2023-03-14T00:11:15;96167.56;;;8.87;100.00
75425;BME280;64007;50.632;13.700;2023-03-14T00:13:42;96150.00;;;8.86;100.00
75425;BME280;64007;50.632;13.700;2023-03-14T00:16:10;96133.44;;;8.84;100.00
75425;BME280;64007;50.632;13.700;2023-03-14T00:18:37;96126.34;;;8.92;100.00
75425;BME280;64007;50.632;13.700;2023-03-14T00:21:04;96133.84;;;9.05;100.00
75425;BME280;64007;50.632;13.700;2023-03-14T00:23:32;96121.56;;;9.04;100.00
75425;BME280;64007;50.632;13.700;2023-03-14T00:26:03;96111.00;;;9.12;100.00
75425;BME280;64007;50.632;13.700;2023-03-14T00:28:29;96121.22;;;8.91;100.00
75425;BME280;64007;50.632;13.700;2023-03-14T00:30:55;96134.72;;;8.79;100.00
75425;BME280;64007;50.632;13.700;2023-03-14T00:33:21;96137.75;;;8.85;100.00
75425;BME280;64007;50.632;13.700;2023-03-14T00:35:55;96142.00;;;8.77;100.00
75425;BME280;64007;50.632;13.700;2023-03-14T00:38:21;96143.97;;;8.75;100.00
75425;BME280;64007;50.632;13.700;2023-03-14T00:40:47;96135.69;;;8.70;100.00
75425;BME280;64007;50.632;13.700;2023-03-14T00:43:12;96145.44;;;8.70;100.00
75425;BME280;64007;50.632;13.700;2023-03-14T00:45:38;96139.31;;;8.69;100.00
75425;BME280;64007;50.632;13.700;2023-03-14T00:48:04;96153.41;;;8.70;100.00
75425;BME280;64007;50.632;13.700;2023-03-14T00:50:30;96149.59;;;8.72;100.00
75425;BME280;64007;50.632;13.700;2023-03-14T00:52:55;96145.63;;;8.76;100.00
75425;BME280;64007;50.632;13.700;2023-03-14T00:55:21;96149.13;;;8.77;100.00
75425;BME280;64007;50.632;13.700;2023-03-14T00:57:47;96136.69;;;8.77;100.00
75425;BME280;64007;50.632;13.700;2023-03-14T01:00:13;96145.38;;;8.88;100.00
75425;BME280;64007;50.632;13.700;2023-03-14T01:02:39;96139.78;;;8.99;100.00
75425;BME280;64007;50.632;13.700;2023-03-14T01:05:05;96135.34;;;9.07;100.00
75425;BME280;64007;50.632;13.700;2023-03-14T01:07:30;96137.81;;;9.01;100.00
75425;BME280;64007;50.632;13.700;2023-03-14T01:09:56;96136.81;;;9.02;100.00
75425;BME280;64007;50.632;13.700;2023-03-14T01:12:22;96142.47;;;9.07;100.00
75425;BME280;64007;50.632;13.700;2023-03-14T01:14:47;96122.56;;;9.03;100.00
75425;BME280;64007;50.632;13.700;2023-03-14T01:17:13;96114.28;;;9.06;100.00
75425;BME280;64007;50.632;13.700;2023-03-14T01:19:39;96099.41;;;9.13;100.00
75425;BME280;64007;50.632;13.700;2023-03-14T01:22:05;96096.91;;;9.20;100.00
75425;BME280;64007;50.632;13.700;2023-03-14T01:24:30;96114.31;;;9.14;100.00
75425;BME280;64007;50.632;13.700;2023-03-14T01:26:56;96108.00;;;9.07;100.00
75425;BME280;64007;50.632;13.700;2023-03-14T01:29:22;96099.72;;;9.10;100.00
75425;BME280;64007;50.632;13.700;2023-03-14T01:31:47;96089.75;;;9.04;100.00
75425;BME280;64007;50.632;13.700;2023-03-14T01:34:13;96087.44;;;9.09;100.00
75425;BME280;64007;50.632;13.700;2023-03-14T01:36:39;96097.72;;;9.12;100.00
75425;BME280;64007;50.632;13.700;2023-03-14T01:39:05;96092.59;;;9.19;100.00
75425;BME280;64007;50.632;13.700;2023-03-14T01:41:31;96075.56;;;9.21;100.00
75425;BME280;64007;50.632;13.700;2023-03-14T01:43:57;96076.69;;;9.19;100.00
75425;BME280;64007;50.632;13.700;2023-03-14T01:54:34;96076.16;;;8.99;100.00
75425;BME280;64007;50.632;13.700;2023-03-14T01:57:14;96075.47;;;8.89;100.00
75425;BME280;64007;50.632;13.700;2023-03-14T01:59:50;96072.66;;;8.82;100.00
75425;BME280;64007;50.632;13.700;2023-03-14T02:02:18;96048.00;;;8.90;100.00
75425;BME280;64007;50.632;13.700;2023-03-14T02:04:44;96043.63;;;8.72;100.00
75425;BME280;64007;50.632;13.700;2023-03-14T02:09:42;96046.91;;;8.66;100.00
75425;BME280;64007;50.632;13.700;2023-03-14T02:12:09;96045.22;;;8.57;100.00
75425;BME280;64007;50.632;13.700;2023-03-14T02:14:36;96044.22;;;8.50;100.00
75425;BME280;64007;50.632;13.700;2023-03-14T02:17:04;96043.38;;;8.50;100.00
75425;BME280;64007;50.632;13.700;2023-03-14T02:19:57;96029.47;;;8.47;100.00
75425;BME280;64007;50.632;13.700;2023-03-14T02:22:31;96022.19;;;8.50;100.00
75425;BME280;64007;50.632;13.700;2023-03-14T02:25:12;96023.81;;;8.42;100.00
75425;BME280;64007;50.632;13.700;2023-03-14T02:27:39;96025.25;;;8.37;100.00
75425;BME280;64007;50.632;13.700;2023-03-14T02:30:10;96038.50;;;8.37;100.00
75425;BME280;64007;50.632;13.700;2023-03-14T02:32:39;96038.00;;;8.33;100.00
75425;BME280;64007;50.632;13.700;2023-03-14T02:35:09;96042.06;;;8.28;100.00
75425;BME280;64007;50.632;13.700;2023-03-14T02:40:06;96033.94;;;8.21;100.00
75425;BME280;64007;50.632;13.700;2023-03-14T02:42:32;96029.78;;;8.18;100.00
75425;BME280;64007;50.632;13.700;2023-03-14T02:47:30;96025.66;;;8.16;100.00
75425;BME280;64007;50.632;13.700;2023-03-14T02:50:18;96032.09;;;8.13;100.00
75425;BME280;64007;50.632;13.700;2023-03-14T02:52:45;96024.31;;;8.12;100.00
75425;BME280;64007;50.632;13.700;2023-03-14T02:55:11;96019.47;;;8.07;100.00
75425;BME280;64007;50.632;13.700;2023-03-14T02:57:37;96012.69;;;8.05;100.00
75425;BME280;64007;50.632;13.700;2023-03-14T03:00:03;96021.06;;;8.00;100.00
75425;BME280;64007;50.632;13.700;2023-03-14T03:02:30;96008.31;;;7.96;100.00
75425;BME280;64007;50.632;13.700;2023-03-14T03:04:56;96009.47;;;7.93;100.00
75425;BME280;64007;50.632;13.700;2023-03-14T03:07:22;95991.94;;;7.92;100.00
75425;BME280;64007;50.632;13.700;2023-03-14T03:09:48;96013.94;;;7.93;100.00
75425;BME280;64007;50.632;13.700;2023-03-14T03:12:13;96016.88;;;7.90;100.00
75425;BME280;64007;50.632;13.700;2023-03-14T03:14:39;96020.34;;;7.90;100.00
75425;BME280;64007;50.632;13.700;2023-03-14T03:17:05;96012.75;;;7.87;100.00
75425;BME280;64007;50.632;13.700;2023-03-14T03:19:32;96019.34;;;7.83;100.00
75425;BME280;64007;50.632;13.700;2023-03-14T03:21:58;96021.31;;;7.81;100.00
75425;BME280;64007;50.632;13.700;2023-03-14T03:24:25;96022.44;;;7.78;100.00
75425;BME280;64007;50.632;13.700;2023-03-14T03:26:51;96029.19;;;7.73;100.00
75425;BME280;64007;50.632;13.700;2023-03-14T03:29:17;96027.53;;;7.72;100.00
75425;BME280;64007;50.632;13.700;2023-03-14T03:31:42;96012.97;;;7.68;100.00
75425;BME280;64007;50.632;13.700;2023-03-14T03:34:12;96009.47;;;7.67;100.00
75425;BME280;64007;50.632;13.700;2023-03-14T03:36:38;96005.66;;;7.62;100.00
75425;BME280;64007;50.632;13.700;2023-03-14T03:39:04;95998.97;;;7.58;100.00
75425;BME280;64007;50.632;13.700;2023-03-14T03:41:30;95988.03;;;7.52;100.00
75425;BME280;64007;50.632;13.700;2023-03-14T03:43:56;95984.56;;;7.52;100.00
75425;BME280;64007;50.632;13.700;2023-03-14T03:46:22;95980.78;;;7.54;100.00
75425;BME280;64007;50.632;13.700;2023-03-14T03:48:48;95974.59;;;7.64;100.00
75425;BME280;64007;50.632;13.700;2023-03-14T03:51:19;95975.13;;;7.75;100.00
75425;BME280;64007;50.632;13.700;2023-03-14T03:53:45;95975.81;;;7.77;100.00
75425;BME280;64007;50.632;13.700;2023-03-14T03:56:10;95965.91;;;7.79;100.00
75425;BME280;64007;50.632;13.700;2023-03-14T03:58:36;95976.28;;;7.73;100.00
75425;BME280;64007;50.632;13.700;2023-03-14T04:01:05;95970.00;;;7.74;100.00
75425;BME280;64007;50.632;13.700;2023-03-14T04:03:31;95980.44;;;7.75;100.00
75425;BME280;64007;50.632;13.700;2023-03-14T04:05:58;95962.06;;;7.74;100.00
75425;BME280;64007;50.632;13.700;2023-03-14T04:08:25;95955.78;;;7.75;100.00
75425;BME280;64007;50.632;13.700;2023-03-14T04:10:55;95954.56;;;7.95;100.00
75425;BME280;64007;50.632;13.700;2023-03-14T04:13:20;95941.13;;;8.31;100.00
75425;BME280;64007;50.632;13.700;2023-03-14T04:15:46;95938.59;;;8.47;100.00
75425;BME280;64007;50.632;13.700;2023-03-14T04:18:12;95940.59;;;8.69;100.00
75425;BME280;64007;50.632;13.700;2023-03-14T04:20:37;95945.63;;;8.81;100.00
75425;BME280;64007;50.632;13.700;2023-03-14T04:23:03;95931.22;;;8.91;100.00
75425;BME280;64007;50.632;13.700;2023-03-14T04:25:29;95931.38;;;8.82;100.00
75425;BME280;64007;50.632;13.700;2023-03-14T04:27:54;95933.66;;;8.76;100.00
75425;BME280;64007;50.632;13.700;2023-03-14T04:30:20;95929.03;;;8.78;100.00
75425;BME280;64007;50.632;13.700;2023-03-14T04:32:46;95933.97;;;8.65;100.00
75425;BME280;64007;50.632;13.700;2023-03-14T04:35:11;95938.28;;;8.66;100.00
75425;BME280;64007;50.632;13.700;2023-03-14T04:37:37;95937.63;;;8.72;100.00
75425;BME280;64007;50.632;13.700;2023-03-14T04:40:03;95928.03;;;8.63;100.00
75425;BME280;64007;50.632;13.700;2023-03-14T04:42:32;95939.13;;;8.75;100.00
75425;BME280;64007;50.632;13.700;2023-03-14T04:44:57;95950.19;;;8.62;100.00
75425;BME280;64007;50.632;13.700;2023-03-14T04:47:23;95936.47;;;8.59;100.00
75425;BME280;64007;50.632;13.700;2023-03-14T04:49:49;95926.19;;;8.56;100.00
75425;BME280;64007;50.632;13.700;2023-03-14T04:52:15;95938.25;;;8.50;100.00
75425;BME280;64007;50.632;13.700;2023-03-14T04:54:40;95938.13;;;8.68;100.00
75425;BME280;64007;50.632;13.700;2023-03-14T04:57:06;95923.38;;;8.57;100.00
75425;BME280;64007;50.632;13.700;2023-03-14T04:59:32;95931.16;;;8.75;100.00
75425;BME280;64007;50.632;13.700;2023-03-14T05:01:58;95923.38;;;8.73;100.00
75425;BME280;64007;50.632;13.700;2023-03-14T05:04:23;95924.88;;;8.60;100.00
75425;BME280;64007;50.632;13.700;2023-03-14T05:06:49;95929.19;;;8.61;100.00
75425;BME280;64007;50.632;13.700;2023-03-14T05:09:15;95942.41;;;8.53;100.00
75425;BME280;64007;50.632;13.700;2023-03-14T05:11:41;95943.41;;;8.52;100.00
75425;BME280;64007;50.632;13.700;2023-03-14T05:14:06;95950.84;;;8.48;100.00
75425;BME280;64007;50.632;13.700;2023-03-14T05:16:32;95954.47;;;8.47;100.00
75425;BME280;64007;50.632;13.700;2023-03-14T05:18:58;95950.69;;;8.58;100.00
75425;BME280;64007;50.632;13.700;2023-03-14T05:21:23;95944.38;;;8.51;100.00
75425;BME280;64007;50.632;13.700;2023-03-14T05:23:49;95934.31;;;8.78;100.00
75425;BME280;64007;50.632;13.700;2023-03-14T05:26:15;95937.66;;;8.81;100.00
75425;BME280;64007;50.632;13.700;2023-03-14T05:28:42;95935.81;;;8.73;100.00
75425;BME280;64007;50.632;13.700;2023-03-14T05:31:08;95925.22;;;8.73;100.00
75425;BME280;64007;50.632;13.700;2023-03-14T05:33:34;95926.69;;;8.75;100.00
75425;BME280;64007;50.632;13.700;2023-03-14T05:36:00;95924.72;;;8.61;100.00
75425;BME280;64007;50.632;13.700;2023-03-14T05:38:26;95917.56;;;8.54;100.00
75425;BME280;64007;50.632;13.700;2023-03-14T05:40:52;95896.53;;;8.44;100.00
75425;BME280;64007;50.632;13.700;2023-03-14T05:43:17;95899.16;;;8.36;100.00
75425;BME280;64007;50.632;13.700;2023-03-14T05:45:43;95894.16;;;8.33;100.00
75425;BME280;64007;50.632;13.700;2023-03-14T05:48:09;95883.56;;;8.33;100.00
75425;BME280;64007;50.632;13.700;2023-03-14T05:50:35;95886.69;;;8.28;100.00
75425;BME280;64007;50.632;13.700;2023-03-14T05:53:00;95893.16;;;8.26;100.00
75425;BME280;64007;50.632;13.700;2023-03-14T05:55:26;95883.75;;;8.39;100.00
75425;BME280;64007;50.632;13.700;2023-03-14T05:57:53;95889.94;;;8.48;100.00
75425;BME280;64007;50.632;13.700;2023-03-14T06:00:19;95886.63;;;8.46;100.00
75425;BME280;64007;50.632;13.700;2023-03-14T06:02:45;95884.97;;;8.53;100.00
75425;BME280;64007;50.632;13.700;2023-03-14T06:05:12;95881.16;;;8.47;100.00
75425;BME280;64007;50.632;13.700;2023-03-14T06:07:38;95876.19;;;8.61;100.00
75425;BME280;64007;50.632;13.700;2023-03-14T06:10:04;95875.69;;;8.57;100.00
75425;BME280;64007;50.632;13.700;2023-03-14T06:12:29;95884.31;;;8.59;100.00
75425;BME280;64007;50.632;13.700;2023-03-14T06:14:55;95896.06;;;8.57;100.00
75425;BME280;64007;50.632;13.700;2023-03-14T06:17:21;95895.56;;;8.61;100.00
75425;BME280;64007;50.632;13.700;2023-03-14T06:19:47;95907.16;;;8.76;100.00
75425;BME280;64007;50.632;13.700;2023-03-14T06:22:13;95900.88;;;8.69;100.00
75425;BME280;64007;50.632;13.700;2023-03-14T06:24:39;95914.63;;;8.73;100.00
75425;BME280;64007;50.632;13.700;2023-03-14T06:27:05;95904.19;;;8.71;100.00
75425;BME280;64007;50.632;13.700;2023-03-14T06:29:30;95911.84;;;8.83;100.00
75425;BME280;64007;50.632;13.700;2023-03-14T06:31:56;95920.25;;;8.78;100.00
75425;BME280;64007;50.632;13.700;2023-03-14T06:34:22;95920.56;;;8.75;100.00
75425;BME280;64007;50.632;13.700;2023-03-14T06:36:47;95932.38;;;8.89;100.00
75425;BME280;64007;50.632;13.700;2023-03-14T06:39:13;95925.75;;;8.93;100.00
75425;BME280;64007;50.632;13.700;2023-03-14T06:41:39;95925.09;;;8.91;100.00
75425;BME280;64007;50.632;13.700;2023-03-14T06:44:05;95930.06;;;8.94;100.00
75425;BME280;64007;50.632;13.700;2023-03-14T06:46:30;95911.81;;;8.91;100.00
75425;BME280;64007;50.632;13.700;2023-03-14T06:48:56;95911.81;;;8.99;100.00
75425;BME280;64007;50.632;13.700;2023-03-14T06:51:22;95922.75;;;8.96;100.00
75425;BME280;64007;50.632;13.700;2023-03-14T06:53:48;95922.75;;;8.96;100.00
75425;BME280;64007;50.632;13.700;2023-03-14T06:56:13;95925.75;;;9.01;100.00
75425;BME280;64007;50.632;13.700;2023-03-14T06:58:39;95926.91;;;8.98;100.00
75425;BME280;64007;50.632;13.700;2023-03-14T07:01:05;95922.25;;;9.00;100.00
75425;BME280;64007;50.632;13.700;2023-03-14T07:03:31;95929.38;;;9.08;100.00
75425;BME280;64007;50.632;13.700;2023-03-14T07:05:57;95930.03;;;9.10;100.00
75425;BME280;64007;50.632;13.700;2023-03-14T07:08:23;95934.69;;;9.16;100.00
75425;BME280;64007;50.632;13.700;2023-03-14T07:10:48;95928.53;;;9.16;100.00
75425;BME280;64007;50.632;13.700;2023-03-14T07:13:14;95931.38;;;9.14;100.00
75425;BME280;64007;50.632;13.700;2023-03-14T07:15:40;95930.72;;;9.12;100.00
75425;BME280;64007;50.632;13.700;2023-03-14T07:18:06;95935.00;;;9.13;100.00
75425;BME280;64007;50.632;13.700;2023-03-14T07:20:31;95943.63;;;9.15;100.00
75425;BME280;64007;50.632;13.700;2023-03-14T07:22:57;95951.41;;;9.17;100.00
75425;BME280;64007;50.632;13.700;2023-03-14T07:25:25;95955.41;;;9.29;100.00
75425;BME280;64007;50.632;13.700;2023-03-14T07:27:51;95947.13;;;9.32;100.00
75425;BME280;64007;50.632;13.700;2023-03-14T07:30:17;95950.91;;;9.46;100.00
75425;BME280;64007;50.632;13.700;2023-03-14T07:32:43;95951.91;;;9.36;100.00
75425;BME280;64007;50.632;13.700;2023-03-14T07:35:09;95950.94;;;9.29;100.00
75425;BME280;64007;50.632;13.700;2023-03-14T07:37:35;95952.94;;;9.27;100.00
75425;BME280;64007;50.632;13.700;2023-03-14T07:40:00;95952.94;;;9.27;100.00
75425;BME280;64007;50.632;13.700;2023-03-14T07:42:26;95954.75;;;9.35;100.00
75425;BME280;64007;50.632;13.700;2023-03-14T07:44:52;95949.28;;;9.36;100.00
75425;BME280;64007;50.632;13.700;2023-03-14T07:47:18;95957.88;;;9.38;100.00
75425;BME280;64007;50.632;13.700;2023-03-14T07:49:43;95953.25;;;9.40;100.00
75425;BME280;64007;50.632;13.700;2023-03-14T07:52:09;95950.91;;;9.46;100.00
75425;BME280;64007;50.632;13.700;2023-03-14T07:54:35;95950.25;;;9.52;100.00
75425;BME280;64007;50.632;13.700;2023-03-14T07:57:01;95940.78;;;9.49;100.00
75425;BME280;64007;50.632;13.700;2023-03-14T07:59:27;95955.88;;;9.49;100.00
75425;BME280;64007;50.632;13.700;2023-03-14T08:01:53;95945.91;;;9.59;100.00
75425;BME280;64007;50.632;13.700;2023-03-14T08:04:19;95950.09;;;9.61;100.00
75425;BME280;64007;50.632;13.700;2023-03-14T08:06:45;95958.34;;;9.66;100.00
75425;BME280;64007;50.632;13.700;2023-03-14T08:09:10;95962.53;;;9.61;100.00
75425;BME280;64007;50.632;13.700;2023-03-14T08:11:36;95954.88;;;9.66;100.00
75425;BME280;64007;50.632;13.700;2023-03-14T08:14:07;95961.16;;;9.73;100.00
75425;BME280;64007;50.632;13.700;2023-03-14T08:16:43;95961.97;;;9.82;100.00
75425;BME280;64007;50.632;13.700;2023-03-14T08:19:15;95963.13;;;9.87;100.00
75425;BME280;64007;50.632;13.700;2023-03-14T08:21:42;95964.41;;;9.99;100.00
75425;BME280;64007;50.632;13.700;2023-03-14T08:24:07;95963.09;;;10.03;100.00
75425;BME280;64007;50.632;13.700;2023-03-14T08:26:33;95964.91;;;10.03;100.00
75425;BME280;64007;50.632;13.700;2023-03-14T08:28:59;95964.91;;;10.03;100.00
75425;BME280;64007;50.632;13.700;2023-03-14T08:31:25;95969.72;;;9.99;100.00
75425;BME280;64007;50.632;13.700;2023-03-14T08:33:50;95965.22;;;10.00;100.00
75425;BME280;64007;50.632;13.700;2023-03-14T08:36:18;95967.41;;;10.04;100.00
75425;BME280;64007;50.632;13.700;2023-03-14T08:38:44;95968.06;;;9.98;100.00
75425;BME280;64007;50.632;13.700;2023-03-14T08:41:10;95968.06;;;9.98;100.00
75425;BME280;64007;50.632;13.700;2023-03-14T08:43:36;95962.44;;;10.01;100.00
75425;BME280;64007;50.632;13.700;2023-03-14T08:46:02;95966.06;;;10.09;100.00
75425;BME280;64007;50.632;13.700;2023-03-14T08:48:29;95941.81;;;10.12;100.00
75425;BME280;64007;50.632;13.700;2023-03-14T08:51:06;95964.53;;;10.14;100.00
75425;BME280;64007;50.632;13.700;2023-03-14T08:53:32;95980.97;;;10.10;100.00
75425;BME280;64007;50.632;13.700;2023-03-14T08:55:58;95981.94;;;10.17;100.00
75425;BME280;64007;50.632;13.700;2023-03-14T08:58:24;95977.97;;;10.21;100.00
75425;BME280;64007;50.632;13.700;2023-03-14T09:00:50;95980.31;;;10.16;100.00
75425;BME280;64007;50.632;13.700;2023-03-14T09:03:16;95976.72;;;10.40;100.00
75425;BME280;64007;50.632;13.700;2023-03-14T09:05:42;95973.94;;;10.33;100.00
75425;BME280;64007;50.632;13.700;2023-03-14T09:08:07;95978.28;;;10.18;100.00
75425;BME280;64007;50.632;13.700;2023-03-14T09:10:33;95972.34;;;10.16;100.00
75425;BME280;64007;50.632;13.700;2023-03-14T09:12:59;95975.94;;;10.31;100.00
75425;BME280;64007;50.632;13.700;2023-03-14T09:15:25;95961.69;;;10.24;100.00
75425;BME280;64007;50.632;13.700;2023-03-14T09:17:51;95965.97;;;10.33;100.00
75425;BME280;64007;50.632;13.700;2023-03-14T09:20:17;95963.97;;;10.35;100.00
75425;BME280;64007;50.632;13.700;2023-03-14T09:22:43;95967.63;;;10.42;100.00
75425;BME280;64007;50.632;13.700;2023-03-14T09:25:09;95974.91;;;10.48;100.00
75425;BME280;64007;50.632;13.700;2023-03-14T09:27:35;95962.25;;;10.50;100.00
75425;BME280;64007;50.632;13.700;2023-03-14T09:30:02;95972.16;;;10.64;100.00
75425;BME280;64007;50.632;13.700;2023-03-14T09:32:29;95965.81;;;10.65;100.00
75425;BME280;64007;50.632;13.700;2023-03-14T09:34:57;95960.56;;;10.57;100.00
75425;BME280;64007;50.632;13.700;2023-03-14T09:37:22;95958.44;;;10.53;100.00
75425;BME280;64007;50.632;13.700;2023-03-14T09:39:48;95965.91;;;10.49;100.00
75425;BME280;64007;50.632;13.700;2023-03-14T09:42:17;95966.09;;;10.48;100.00
75425;BME280;64007;50.632;13.700;2023-03-14T09:44:56;95964.53;;;10.61;100.00
75425;BME280;64007;50.632;13.700;2023-03-14T09:47:23;95968.88;;;10.54;100.00
75425;BME280;64007;50.632;13.700;2023-03-14T09:49:49;95964.41;;;10.55;100.00
75425;BME280;64007;50.632;13.700;2023-03-14T09:52:19;95963.56;;;10.54;100.00
75425;BME280;64007;50.632;13.700;2023-03-14T09:57:17;95972.41;;;10.78;100.00
75425;BME280;64007;50.632;13.700;2023-03-14T09:59:48;95963.81;;;10.67;100.00
75425;BME280;64007;50.632;13.700;2023-03-14T10:02:23;95965.34;;;10.62;100.00
75425;BME280;64007;50.632;13.700;2023-03-14T10:04:52;95958.25;;;10.54;100.00
75425;BME280;64007;50.632;13.700;2023-03-14T10:07:29;95957.44;;;10.54;100.00
75425;BME280;64007;50.632;13.700;2023-03-14T10:09:55;95961.22;;;10.59;100.00
75425;BME280;64007;50.632;13.700;2023-03-14T10:12:36;95955.53;;;10.62;96.60
75425;BME280;64007;50.632;13.700;2023-03-14T10:15:07;95954.31;;;10.73;97.27
75425;BME280;64007;50.632;13.700;2023-03-14T10:17:49;95962.22;;;10.58;100.00
75425;BME280;64007;50.632;13.700;2023-03-14T10:22:57;95963.91;;;10.51;100.00
75425;BME280;64007;50.632;13.700;2023-03-14T10:25:29;95955.63;;;10.46;100.00
75425;BME280;64007;50.632;13.700;2023-03-14T10:27:55;95943.19;;;10.47;100.00
75425;BME280;64007;50.632;13.700;2023-03-14T10:33:33;95939.19;;;10.74;100.00
75425;BME280;64007;50.632;13.700;2023-03-14T10:36:06;95943.84;;;10.72;99.21
75425;BME280;64007;50.632;13.700;2023-03-14T10:38:41;95939.41;;;10.95;99.40
75425;BME280;64007;50.632;13.700;2023-03-14T10:41:19;95939.28;;;11.11;96.04
75425;BME280;64007;50.632;13.700;2023-03-14T10:43:57;95948.63;;;11.30;95.51
75425;BME280;64007;50.632;13.700;2023-03-14T10:46:25;95943.59;;;11.50;88.68
75425;BME280;64007;50.632;13.700;2023-03-14T10:48:53;95942.19;;;11.62;90.25
75425;BME280;64007;50.632;13.700;2023-03-14T10:51:22;95949.03;;;11.79;88.09
75425;BME280;64007;50.632;13.700;2023-03-14T10:53:56;95950.03;;;11.78;81.23
75425;BME280;64007;50.632;13.700;2023-03-14T10:56:24;95948.44;;;11.69;82.05
75425;BME280;64007;50.632;13.700;2023-03-14T10:58:57;95951.63;;;11.65;80.77
75425;BME280;64007;50.632;13.700;2023-03-14T11:04:08;95946.03;;;11.74;80.96
75425;BME280;64007;50.632;13.700;2023-03-14T11:06:56;95943.69;;;11.79;78.95
75425;BME280;64007;50.632;13.700;2023-03-14T11:20:46;95937.81;;;11.99;76.35
75425;BME280;64007;50.632;13.700;2023-03-14T11:23:27;95946.63;;;11.99;75.96
75425;BME280;64007;50.632;13.700;2023-03-14T11:28:58;95958.13;;;12.14;75.71
75425;BME280;64007;50.632;13.700;2023-03-14T11:31:32;95941.69;;;12.11;74.60
75425;BME280;64007;50.632;13.700;2023-03-14T11:39:39;95937.34;;;12.39;71.13
75425;BME280;64007;50.632;13.700;2023-03-14T11:42:11;95939.56;;;12.72;73.73
75425;BME280;64007;50.632;13.700;2023-03-14T11:44:39;95934.66;;;12.90;72.37
75425;BME280;64007;50.632;13.700;2023-03-14T11:47:14;95938.81;;;12.78;71.55
75425;BME280;64007;50.632;13.700;2023-03-14T11:52:41;95924.59;;;12.71;69.93
75425;BME280;64007;50.632;13.700;2023-03-14T11:55:27;95929.28;;;12.69;71.91
75425;BME280;64007;50.632;13.700;2023-03-14T11:58:44;95920.00;;;12.65;69.67
75425;BME280;64007;50.632;13.700;2023-03-14T12:00:44;95917.19;;;12.51;70.68
75425;BME280;64007;50.632;13.700;2023-03-14T12:03:17;95924.56;;;12.49;70.93
75425;BME280;64007;50.632;13.700;2023-03-14T12:06:20;95916.00;;;12.90;69.13
75425;BME280;64007;50.632;13.700;2023-03-14T12:09:00;95912.81;;;13.44;67.44
75425;BME280;64007;50.632;13.700;2023-03-14T12:14:03;95911.22;;;13.49;64.90
75425;BME280;64007;50.632;13.700;2023-03-14T12:16:46;95910.53;;;13.20;64.35
75425;BME280;64007;50.632;13.700;2023-03-14T12:21:53;95898.22;;;13.18;65.27
75425;BME280;64007;50.632;13.700;2023-03-14T12:24:34;95902.38;;;13.06;67.32
75425;BME280;64007;50.632;13.700;2023-03-14T12:27:05;95905.56;;;12.95;68.51
75425;BME280;64007;50.632;13.700;2023-03-14T12:29:31;95910.13;;;12.80;69.05
75425;BME280;64007;50.632;13.700;2023-03-14T12:34:33;95901.91;;;12.60;69.03
75425;BME280;64007;50.632;13.700;2023-03-14T12:42:38;95900.13;;;12.46;70.52
75425;BME280;64007;50.632;13.700;2023-03-14T12:45:25;95899.13;;;12.32;70.71
75425;BME280;64007;50.632;13.700;2023-03-14T12:47:54;95891.16;;;12.17;71.12
75425;BME280;64007;50.632;13.700;2023-03-14T12:50:44;95898.50;;;12.01;74.06
75425;BME280;64007;50.632;13.700;2023-03-14T12:59:37;95890.16;;;11.89;79.88
75425;BME280;64007;50.632;13.700;2023-03-14T13:05:02;95884.47;;;13.00;73.71
75425;BME280;64007;50.632;13.700;2023-03-14T13:10:29;95879.19;;;13.22;69.82
75425;BME280;64007;50.632;13.700;2023-03-14T13:13:07;95875.50;;;13.08;68.46
75425;BME280;64007;50.632;13.700;2023-03-14T13:15:40;95878.91;;;12.95;68.85
75425;BME280;64007;50.632;13.700;2023-03-14T13:18:15;95874.25;;;12.61;72.20
75425;BME280;64007;50.632;13.700;2023-03-14T13:20:47;95871.25;;;12.49;73.01
75425;BME280;64007;50.632;13.700;2023-03-14T13:23:29;95873.41;;;12.24;77.90
75425;BME280;64007;50.632;13.700;2023-03-14T13:25:56;95872.88;;;12.14;86.86
75425;BME280;64007;50.632;13.700;2023-03-14T13:28:22;95880.78;;;12.08;95.54
75425;BME280;64007;50.632;13.700;2023-03-14T13:30:49;95880.69;;;12.16;100.00
75425;BME280;64007;50.632;13.700;2023-03-14T13:33:21;95889.16;;;12.05;100.00
75425;BME280;64007;50.632;13.700;2023-03-14T13:35:54;95883.63;;;11.91;100.00
75425;BME280;64007;50.632;13.700;2023-03-14T13:38:23;95881.53;;;11.87;100.00
75425;BME280;64007;50.632;13.700;2023-03-14T13:40:51;95875.81;;;11.75;100.00
75425;BME280;64007;50.632;13.700;2023-03-14T13:43:23;95880.97;;;11.62;100.00
75425;BME280;64007;50.632;13.700;2023-03-14T13:45:53;95882.63;;;11.78;100.00
75425;BME280;64007;50.632;13.700;2023-03-14T13:48:21;95886.34;;;11.54;100.00
75425;BME280;64007;50.632;13.700;2023-03-14T13:51:15;95883.03;;;11.52;100.00
75425;BME280;64007;50.632;13.700;2023-03-14T13:53:47;95893.97;;;11.57;100.00
75425;BME280;64007;50.632;13.700;2023-03-14T13:56:14;95896.44;;;11.44;100.00
75425;BME280;64007;50.632;13.700;2023-03-14T13:58:40;95894.50;;;11.38;100.00
75425;BME280;64007;50.632;13.700;2023-03-14T14:01:19;95891.94;;;11.07;100.00
75425;BME280;64007;50.632;13.700;2023-03-14T14:03:48;95884.41;;;11.10;100.00
75425;BME280;64007;50.632;13.700;2023-03-14T14:06:31;95887.50;;;10.99;100.00
75425;BME280;64007;50.632;13.700;2023-03-14T14:09:01;95886.78;;;11.05;100.00